This is the latest recevied weather packets stored in our database for station/object OH6NMY. If no packets are shown the sender has not sent any weather packets the latest 10 day(s).
| Time | Temp. | Humidity | Pressure | Rain* | Wind** | Luminosity | Snow |
|---|---|---|---|---|---|---|---|
| 1777001683 | 2.78° C | 79% | 1008.6 hPa | 0 mm | - | - | - |
| 1777000602 | 3.33° C | 79% | 1008.1 hPa | 0 mm | - | - | - |
| 1776990213 | 2.78° C | 80% | 1007.4 hPa | 0 mm | - | - | - |
| 1776987513 | 3.33° C | 79% | 1007.2 hPa | 0 mm | - | - | - |
| 1776986973 | 3.33° C | 78% | 1007.2 hPa | 0 mm | - | - | - |
| 1776984813 | 3.33° C | 79% | 1007.3 hPa | 0 mm | - | - | - |
| 1776983865 | 3.33° C | 78% | 1007.2 hPa | 0 mm | - | - | - |
| 1776983193 | 3.33° C | 78% | 1007.1 hPa | 0 mm | - | - | - |
| 1776981033 | 2.22° C | 80% | 1007.3 hPa | 0 mm | - | - | - |
| 1776978873 | 2.78° C | 76% | 1007.1 hPa | 0 mm | - | - | - |
| 1776976173 | 3.89° C | 71% | 1007 hPa | 0 mm | - | - | - |
| 1776975633 | 3.89° C | 70% | 1007.1 hPa | 0 mm | - | - | - |
| 1776974553 | 3.89° C | 69% | 1007 hPa | 0 mm | - | - | - |
| 1776973473 | 3.89° C | 69% | 1007.4 hPa | 0 mm | - | - | - |
| 1776972933 | 4.44° C | 66% | 1007.4 hPa | 0 mm | - | - | - |
| 1776970233 | 3.89° C | 69% | 1007.7 hPa | 0 mm | - | - | - |
| 1776966585 | 7.22° C | 54% | 1008.3 hPa | 0 mm | - | - | - |
| 1776965913 | 7.78° C | 51% | 1008.4 hPa | 0 mm | - | - | - |
| 1776962133 | 8.89° C | 45% | 1009.1 hPa | 0 mm | - | - | - |
| 1776959433 | 9.44° C | 41% | 1009.6 hPa | 0 mm | - | - | - |
| 1776957813 | 8.89° C | 43% | 1009.5 hPa | 0 mm | - | - | - |
| 1776955653 | 8.33° C | 41% | 1010.5 hPa | 0 mm | - | - | - |
| 1776947553 | 8.89° C | 44% | 1011.7 hPa | 0 mm | - | - | - |
| 1776944313 | 8.33° C | 43% | 1012.5 hPa | 0 mm | - | - | - |
| 1776943773 | 8.33° C | 46% | 1012.8 hPa | 0 mm | - | - | - |
* Rain latest hour (hover to see other rain measurements)
** Current wind speed in m/s (hover to see current wind gust speed)